sensor_id;sensor_type;location;lat;lon;timestamp;temperature;humidity
16160;DHT22;8185;57.818;15.224;2022-12-18T00:02:12;-2.20;99.90
16160;DHT22;8185;57.818;15.224;2022-12-18T00:04:39;-2.20;99.90
16160;DHT22;8185;57.818;15.224;2022-12-18T00:07:06;-2.10;99.90
16160;DHT22;8185;57.818;15.224;2022-12-18T00:09:33;-2.10;99.90
16160;DHT22;8185;57.818;15.224;2022-12-18T00:12:01;-2.10;99.90
16160;DHT22;8185;57.818;15.224;2022-12-18T00:14:29;-2.10;99.90
16160;DHT22;8185;57.818;15.224;2022-12-18T00:16:56;-2.10;99.90
16160;DHT22;8185;57.818;15.224;2022-12-18T00:19:26;-2.10;99.90
16160;DHT22;8185;57.818;15.224;2022-12-18T00:21:53;-2.10;99.90
16160;DHT22;8185;57.818;15.224;2022-12-18T00:24:21;-2.10;99.90
16160;DHT22;8185;57.818;15.224;2022-12-18T00:26:48;-2.10;99.90
16160;DHT22;8185;57.818;15.224;2022-12-18T00:29:15;-2.00;99.90
16160;DHT22;8185;57.818;15.224;2022-12-18T00:31:44;-2.00;99.90
16160;DHT22;8185;57.818;15.224;2022-12-18T00:34:11;-2.00;99.90
16160;DHT22;8185;57.818;15.224;2022-12-18T00:36:40;-2.00;99.90
16160;DHT22;8185;57.818;15.224;2022-12-18T00:39:07;-2.00;99.90
16160;DHT22;8185;57.818;15.224;2022-12-18T00:41:35;-1.90;99.90
16160;DHT22;8185;57.818;15.224;2022-12-18T00:44:19;-1.90;99.90
16160;DHT22;8185;57.818;15.224;2022-12-18T00:46:48;-1.90;99.90
16160;DHT22;8185;57.818;15.224;2022-12-18T00:49:17;-1.80;99.90
16160;DHT22;8185;57.818;15.224;2022-12-18T00:51:44;-1.80;99.90
16160;DHT22;8185;57.818;15.224;2022-12-18T00:54:12;-1.80;99.90
16160;DHT22;8185;57.818;15.224;2022-12-18T00:56:39;-1.80;99.90
16160;DHT22;8185;57.818;15.224;2022-12-18T00:59:07;-1.80;99.90
16160;DHT22;8185;57.818;15.224;2022-12-18T01:01:34;-1.80;99.90
16160;DHT22;8185;57.818;15.224;2022-12-18T01:04:03;-1.70;99.90
16160;DHT22;8185;57.818;15.224;2022-12-18T01:06:30;-1.70;99.90
16160;DHT22;8185;57.818;15.224;2022-12-18T01:08:57;-1.70;99.90
16160;DHT22;8185;57.818;15.224;2022-12-18T01:11:25;-1.70;99.90
16160;DHT22;8185;57.818;15.224;2022-12-18T01:13:53;-1.70;99.90
16160;DHT22;8185;57.818;15.224;2022-12-18T01:16:21;-1.60;99.90
16160;DHT22;8185;57.818;15.224;2022-12-18T01:18:51;-1.60;99.90
16160;DHT22;8185;57.818;15.224;2022-12-18T01:21:21;-1.60;99.90
16160;DHT22;8185;57.818;15.224;2022-12-18T01:23:51;-1.60;99.90
16160;DHT22;8185;57.818;15.224;2022-12-18T01:26:19;-1.50;99.90
16160;DHT22;8185;57.818;15.224;2022-12-18T01:28:47;-1.50;99.90
16160;DHT22;8185;57.818;15.224;2022-12-18T01:33:39;-1.50;99.90
16160;DHT22;8185;57.818;15.224;2022-12-18T01:36:07;-1.50;99.90
16160;DHT22;8185;57.818;15.224;2022-12-18T01:38:36;-1.50;99.90
16160;DHT22;8185;57.818;15.224;2022-12-18T01:41:03;-1.50;99.90
16160;DHT22;8185;57.818;15.224;2022-12-18T01:43:44;-1.40;99.90
16160;DHT22;8185;57.818;15.224;2022-12-18T01:46:12;-1.40;99.90
16160;DHT22;8185;57.818;15.224;2022-12-18T01:48:39;-1.40;99.90
16160;DHT22;8185;57.818;15.224;2022-12-18T01:51:09;-1.40;99.90
16160;DHT22;8185;57.818;15.224;2022-12-18T01:53:39;-1.40;99.90
16160;DHT22;8185;57.818;15.224;2022-12-18T01:56:07;-1.30;99.90
16160;DHT22;8185;57.818;15.224;2022-12-18T01:58:41;-1.30;99.90
16160;DHT22;8185;57.818;15.224;2022-12-18T02:01:10;-1.30;99.90
16160;DHT22;8185;57.818;15.224;2022-12-18T02:03:40;-1.30;99.90
16160;DHT22;8185;57.818;15.224;2022-12-18T02:06:12;-1.30;99.90
16160;DHT22;8185;57.818;15.224;2022-12-18T02:08:48;-1.30;99.90
16160;DHT22;8185;57.818;15.224;2022-12-18T02:11:22;-1.30;99.90
16160;DHT22;8185;57.818;15.224;2022-12-18T02:13:59;-1.20;99.90
16160;DHT22;8185;57.818;15.224;2022-12-18T02:16:34;-1.20;99.90
16160;DHT22;8185;57.818;15.224;2022-12-18T02:19:10;-1.20;99.90
16160;DHT22;8185;57.818;15.224;2022-12-18T02:21:45;-1.20;99.90
16160;DHT22;8185;57.818;15.224;2022-12-18T02:24:26;-1.20;99.90
16160;DHT22;8185;57.818;15.224;2022-12-18T02:26:58;-1.10;99.90
16160;DHT22;8185;57.818;15.224;2022-12-18T02:29:31;-1.10;99.90
16160;DHT22;8185;57.818;15.224;2022-12-18T02:32:00;-1.10;99.90
16160;DHT22;8185;57.818;15.224;2022-12-18T02:34:31;-1.10;99.90
16160;DHT22;8185;57.818;15.224;2022-12-18T02:37:04;-1.00;99.90
16160;DHT22;8185;57.818;15.224;2022-12-18T02:39:33;-1.00;99.90
16160;DHT22;8185;57.818;15.224;2022-12-18T02:42:02;-1.00;99.90
16160;DHT22;8185;57.818;15.224;2022-12-18T02:44:33;-0.90;99.90
16160;DHT22;8185;57.818;15.224;2022-12-18T02:47:01;-0.90;99.90
16160;DHT22;8185;57.818;15.224;2022-12-18T02:49:34;-0.90;99.90
16160;DHT22;8185;57.818;15.224;2022-12-18T02:52:09;-0.80;99.90
16160;DHT22;8185;57.818;15.224;2022-12-18T02:54:52;-0.80;99.90
16160;DHT22;8185;57.818;15.224;2022-12-18T02:57:28;-0.80;99.90
16160;DHT22;8185;57.818;15.224;2022-12-18T03:00:02;-0.80;99.90
16160;DHT22;8185;57.818;15.224;2022-12-18T03:02:36;-0.70;99.90
16160;DHT22;8185;57.818;15.224;2022-12-18T03:05:10;-0.70;99.90
16160;DHT22;8185;57.818;15.224;2022-12-18T03:07:43;-0.70;99.90
16160;DHT22;8185;57.818;15.224;2022-12-18T03:10:16;-0.70;99.90
16160;DHT22;8185;57.818;15.224;2022-12-18T03:12:49;-0.70;99.90
16160;DHT22;8185;57.818;15.224;2022-12-18T03:15:21;-0.70;99.90
16160;DHT22;8185;57.818;15.224;2022-12-18T03:17:52;-0.60;99.90
16160;DHT22;8185;57.818;15.224;2022-12-18T03:20:22;-0.60;99.90
16160;DHT22;8185;57.818;15.224;2022-12-18T03:22:53;-0.50;99.90
16160;DHT22;8185;57.818;15.224;2022-12-18T03:25:22;-0.50;99.90
16160;DHT22;8185;57.818;15.224;2022-12-18T03:27:55;-0.50;99.90
16160;DHT22;8185;57.818;15.224;2022-12-18T03:30:25;-0.50;99.90
16160;DHT22;8185;57.818;15.224;2022-12-18T03:32:58;-0.40;99.90
16160;DHT22;8185;57.818;15.224;2022-12-18T03:35:31;-0.40;99.90
16160;DHT22;8185;57.818;15.224;2022-12-18T03:37:58;-0.40;99.90
16160;DHT22;8185;57.818;15.224;2022-12-18T03:40:31;-0.40;99.90
16160;DHT22;8185;57.818;15.224;2022-12-18T03:43:08;-0.40;99.90
16160;DHT22;8185;57.818;15.224;2022-12-18T03:45:41;-0.40;99.90
16160;DHT22;8185;57.818;15.224;2022-12-18T03:48:12;-0.30;99.90
16160;DHT22;8185;57.818;15.224;2022-12-18T03:50:46;-0.20;99.90
16160;DHT22;8185;57.818;15.224;2022-12-18T03:53:25;-0.20;99.90
16160;DHT22;8185;57.818;15.224;2022-12-18T03:55:55;-0.20;99.90
16160;DHT22;8185;57.818;15.224;2022-12-18T03:58:26;-0.20;99.90
16160;DHT22;8185;57.818;15.224;2022-12-18T04:00:58;-0.20;99.90
16160;DHT22;8185;57.818;15.224;2022-12-18T04:03:26;-0.20;99.90
16160;DHT22;8185;57.818;15.224;2022-12-18T04:05:56;-0.20;99.90
16160;DHT22;8185;57.818;15.224;2022-12-18T04:08:24;-0.20;99.90
16160;DHT22;8185;57.818;15.224;2022-12-18T04:10:51;-0.20;99.90
16160;DHT22;8185;57.818;15.224;2022-12-18T04:13:22;-0.20;99.90
16160;DHT22;8185;57.818;15.224;2022-12-18T04:15:51;-0.10;99.90
16160;DHT22;8185;57.818;15.224;2022-12-18T04:18:18;-0.10;99.90
16160;DHT22;8185;57.818;15.224;2022-12-18T04:20:46;-0.10;99.90
16160;DHT22;8185;57.818;15.224;2022-12-18T04:23:13;-0.10;99.90
16160;DHT22;8185;57.818;15.224;2022-12-18T04:25:40;-0.10;99.90
16160;DHT22;8185;57.818;15.224;2022-12-18T04:28:07;-0.10;99.90
16160;DHT22;8185;57.818;15.224;2022-12-18T04:30:34;-0.10;99.90
16160;DHT22;8185;57.818;15.224;2022-12-18T04:33:03;-0.10;99.90
16160;DHT22;8185;57.818;15.224;2022-12-18T04:35:30;-0.10;99.90
16160;DHT22;8185;57.818;15.224;2022-12-18T04:37:57;-0.10;99.90
16160;DHT22;8185;57.818;15.224;2022-12-18T04:40:24;-0.10;99.90
16160;DHT22;8185;57.818;15.224;2022-12-18T04:42:52;-0.10;99.90
16160;DHT22;8185;57.818;15.224;2022-12-18T04:45:19;-0.10;99.90
16160;DHT22;8185;57.818;15.224;2022-12-18T04:47:46;-0.10;99.90
16160;DHT22;8185;57.818;15.224;2022-12-18T04:50:14;0.00;99.90
16160;DHT22;8185;57.818;15.224;2022-12-18T04:52:42;-0.10;99.90
16160;DHT22;8185;57.818;15.224;2022-12-18T04:55:09;-0.10;99.90
16160;DHT22;8185;57.818;15.224;2022-12-18T04:57:36;-0.10;99.90
16160;DHT22;8185;57.818;15.224;2022-12-18T05:00:04;-0.10;99.90
16160;DHT22;8185;57.818;15.224;2022-12-18T05:02:32;-0.10;99.90
16160;DHT22;8185;57.818;15.224;2022-12-18T05:04:59;-0.10;99.90
16160;DHT22;8185;57.818;15.224;2022-12-18T05:07:27;-0.10;99.90
16160;DHT22;8185;57.818;15.224;2022-12-18T05:09:55;-0.10;99.90
16160;DHT22;8185;57.818;15.224;2022-12-18T05:12:25;-0.10;99.90
16160;DHT22;8185;57.818;15.224;2022-12-18T05:14:52;-0.20;99.90
16160;DHT22;8185;57.818;15.224;2022-12-18T05:17:19;-0.10;99.90
16160;DHT22;8185;57.818;15.224;2022-12-18T05:19:46;-0.20;99.90
16160;DHT22;8185;57.818;15.224;2022-12-18T05:22:14;-0.20;99.90
16160;DHT22;8185;57.818;15.224;2022-12-18T05:24:42;-0.20;99.90
16160;DHT22;8185;57.818;15.224;2022-12-18T05:27:09;-0.20;99.90
16160;DHT22;8185;57.818;15.224;2022-12-18T05:29:37;-0.20;99.90
16160;DHT22;8185;57.818;15.224;2022-12-18T05:32:04;-0.20;99.90
16160;DHT22;8185;57.818;15.224;2022-12-18T05:34:31;-0.20;99.90
16160;DHT22;8185;57.818;15.224;2022-12-18T05:36:59;-0.10;99.90
16160;DHT22;8185;57.818;15.224;2022-12-18T05:39:26;-0.10;99.90
16160;DHT22;8185;57.818;15.224;2022-12-18T05:41:55;-0.10;99.90
16160;DHT22;8185;57.818;15.224;2022-12-18T05:44:22;-0.10;99.90
16160;DHT22;8185;57.818;15.224;2022-12-18T05:46:49;-0.10;99.90
16160;DHT22;8185;57.818;15.224;2022-12-18T05:49:16;-0.20;99.90
16160;DHT22;8185;57.818;15.224;2022-12-18T05:51:45;-0.20;99.90
16160;DHT22;8185;57.818;15.224;2022-12-18T05:54:12;-0.20;99.90
16160;DHT22;8185;57.818;15.224;2022-12-18T05:56:39;-0.10;99.90
16160;DHT22;8185;57.818;15.224;2022-12-18T05:59:08;-0.10;99.90
16160;DHT22;8185;57.818;15.224;2022-12-18T06:01:35;-0.10;99.90
16160;DHT22;8185;57.818;15.224;2022-12-18T06:04:02;-0.10;99.90
16160;DHT22;8185;57.818;15.224;2022-12-18T06:06:30;-0.10;99.90
16160;DHT22;8185;57.818;15.224;2022-12-18T06:08:58;-0.10;99.90
16160;DHT22;8185;57.818;15.224;2022-12-18T06:11:27;-0.10;99.90
16160;DHT22;8185;57.818;15.224;2022-12-18T06:13:55;-0.10;99.90
16160;DHT22;8185;57.818;15.224;2022-12-18T06:16:24;-0.10;99.90
16160;DHT22;8185;57.818;15.224;2022-12-18T06:18:51;-0.10;99.90
16160;DHT22;8185;57.818;15.224;2022-12-18T06:21:18;-0.10;99.90
16160;DHT22;8185;57.818;15.224;2022-12-18T06:23:45;-0.10;99.90
16160;DHT22;8185;57.818;15.224;2022-12-18T06:26:13;-0.10;99.90
16160;DHT22;8185;57.818;15.224;2022-12-18T06:28:40;0.00;99.90
16160;DHT22;8185;57.818;15.224;2022-12-18T06:31:08;0.00;99.90
16160;DHT22;8185;57.818;15.224;2022-12-18T06:33:38;0.00;99.90
16160;DHT22;8185;57.818;15.224;2022-12-18T06:36:07;0.00;99.90
16160;DHT22;8185;57.818;15.224;2022-12-18T06:38:37;0.90;99.90
16160;DHT22;8185;57.818;15.224;2022-12-18T06:41:07;0.00;99.90
16160;DHT22;8185;57.818;15.224;2022-12-18T06:43:34;0.10;99.90
16160;DHT22;8185;57.818;15.224;2022-12-18T06:46:02;0.10;99.90
16160;DHT22;8185;57.818;15.224;2022-12-18T06:48:30;0.10;99.90
16160;DHT22;8185;57.818;15.224;2022-12-18T06:50:59;0.10;99.90
16160;DHT22;8185;57.818;15.224;2022-12-18T06:53:27;0.10;99.90
16160;DHT22;8185;57.818;15.224;2022-12-18T06:56:00;0.00;99.90
16160;DHT22;8185;57.818;15.224;2022-12-18T06:58:27;0.10;99.90
16160;DHT22;8185;57.818;15.224;2022-12-18T07:00:59;0.00;99.90
16160;DHT22;8185;57.818;15.224;2022-12-18T07:03:27;0.00;99.90
16160;DHT22;8185;57.818;15.224;2022-12-18T07:05:54;0.00;99.90
16160;DHT22;8185;57.818;15.224;2022-12-18T07:08:23;0.00;99.90
16160;DHT22;8185;57.818;15.224;2022-12-18T07:10:50;0.10;99.90
16160;DHT22;8185;57.818;15.224;2022-12-18T07:13:18;0.10;99.90
16160;DHT22;8185;57.818;15.224;2022-12-18T07:15:46;0.10;99.90
16160;DHT22;8185;57.818;15.224;2022-12-18T07:18:13;0.00;99.90
16160;DHT22;8185;57.818;15.224;2022-12-18T07:20:40;0.00;99.90
16160;DHT22;8185;57.818;15.224;2022-12-18T07:23:07;0.00;99.90
16160;DHT22;8185;57.818;15.224;2022-12-18T07:25:36;0.00;99.90
16160;DHT22;8185;57.818;15.224;2022-12-18T07:28:04;0.00;99.90
16160;DHT22;8185;57.818;15.224;2022-12-18T07:30:31;0.00;99.90
16160;DHT22;8185;57.818;15.224;2022-12-18T07:32:59;0.00;99.90
16160;DHT22;8185;57.818;15.224;2022-12-18T07:35:26;0.00;99.90
16160;DHT22;8185;57.818;15.224;2022-12-18T07:37:53;0.00;99.90
16160;DHT22;8185;57.818;15.224;2022-12-18T07:40:20;0.00;99.90
16160;DHT22;8185;57.818;15.224;2022-12-18T07:42:49;0.00;99.90
16160;DHT22;8185;57.818;15.224;2022-12-18T07:45:16;0.00;99.90
16160;DHT22;8185;57.818;15.224;2022-12-18T07:47:43;0.00;99.90
16160;DHT22;8185;57.818;15.224;2022-12-18T07:50:11;0.00;99.90
16160;DHT22;8185;57.818;15.224;2022-12-18T07:52:38;0.00;99.90
16160;DHT22;8185;57.818;15.224;2022-12-18T07:55:06;0.00;99.90
16160;DHT22;8185;57.818;15.224;2022-12-18T07:57:34;0.00;99.90
16160;DHT22;8185;57.818;15.224;2022-12-18T08:00:03;0.00;99.90
16160;DHT22;8185;57.818;15.224;2022-12-18T08:02:30;0.00;99.90
16160;DHT22;8185;57.818;15.224;2022-12-18T08:04:58;0.10;99.90
16160;DHT22;8185;57.818;15.224;2022-12-18T08:07:25;0.10;99.90
16160;DHT22;8185;57.818;15.224;2022-12-18T08:09:52;0.10;99.90
16160;DHT22;8185;57.818;15.224;2022-12-18T08:12:19;0.10;99.90
16160;DHT22;8185;57.818;15.224;2022-12-18T08:14:47;0.20;99.90
16160;DHT22;8185;57.818;15.224;2022-12-18T08:17:15;0.20;99.90
16160;DHT22;8185;57.818;15.224;2022-12-18T08:19:42;0.20;99.90
16160;DHT22;8185;57.818;15.224;2022-12-18T08:22:10;0.20;99.90
16160;DHT22;8185;57.818;15.224;2022-12-18T08:24:37;0.20;99.90
16160;DHT22;8185;57.818;15.224;2022-12-18T08:27:04;0.20;99.90
16160;DHT22;8185;57.818;15.224;2022-12-18T08:29:31;0.20;99.90
16160;DHT22;8185;57.818;15.224;2022-12-18T08:31:59;0.30;99.90
16160;DHT22;8185;57.818;15.224;2022-12-18T08:34:28;0.30;99.90
16160;DHT22;8185;57.818;15.224;2022-12-18T08:36:55;0.30;99.90
16160;DHT22;8185;57.818;15.224;2022-12-18T08:39:22;0.30;99.90
16160;DHT22;8185;57.818;15.224;2022-12-18T08:41:49;0.30;99.90
16160;DHT22;8185;57.818;15.224;2022-12-18T08:44:30;0.30;99.90
16160;DHT22;8185;57.818;15.224;2022-12-18T08:47:07;0.30;99.90
16160;DHT22;8185;57.818;15.224;2022-12-18T08:49:36;0.30;99.90
16160;DHT22;8185;57.818;15.224;2022-12-18T08:52:03;0.40;99.90
16160;DHT22;8185;57.818;15.224;2022-12-18T08:54:31;0.30;99.90
16160;DHT22;8185;57.818;15.224;2022-12-18T08:56:58;0.40;99.90
16160;DHT22;8185;57.818;15.224;2022-12-18T08:59:25;0.40;99.90
16160;DHT22;8185;57.818;15.224;2022-12-18T09:01:55;0.40;99.90
16160;DHT22;8185;57.818;15.224;2022-12-18T09:04:23;0.40;99.90
16160;DHT22;8185;57.818;15.224;2022-12-18T09:06:51;0.40;99.90
16160;DHT22;8185;57.818;15.224;2022-12-18T09:09:18;0.40;99.90
16160;DHT22;8185;57.818;15.224;2022-12-18T09:11:45;0.50;99.90
16160;DHT22;8185;57.818;15.224;2022-12-18T09:14:12;0.40;99.90
16160;DHT22;8185;57.818;15.224;2022-12-18T09:16:40;0.50;99.90
16160;DHT22;8185;57.818;15.224;2022-12-18T09:19:08;0.50;99.90
16160;DHT22;8185;57.818;15.224;2022-12-18T09:21:36;0.50;99.90
16160;DHT22;8185;57.818;15.224;2022-12-18T09:24:08;0.50;99.90
16160;DHT22;8185;57.818;15.224;2022-12-18T09:26:38;0.50;99.90
16160;DHT22;8185;57.818;15.224;2022-12-18T09:29:05;0.50;99.90
16160;DHT22;8185;57.818;15.224;2022-12-18T09:31:33;0.50;99.90
16160;DHT22;8185;57.818;15.224;2022-12-18T09:34:01;0.50;99.90
16160;DHT22;8185;57.818;15.224;2022-12-18T09:36:28;0.50;99.90
16160;DHT22;8185;57.818;15.224;2022-12-18T09:38:55;0.50;99.90
16160;DHT22;8185;57.818;15.224;2022-12-18T09:41:41;0.50;99.90
16160;DHT22;8185;57.818;15.224;2022-12-18T09:44:16;0.50;99.90
16160;DHT22;8185;57.818;15.224;2022-12-18T09:46:49;0.60;99.90
16160;DHT22;8185;57.818;15.224;2022-12-18T09:49:21;0.60;99.90
16160;DHT22;8185;57.818;15.224;2022-12-18T09:51:52;0.60;99.90
16160;DHT22;8185;57.818;15.224;2022-12-18T09:54:23;0.60;99.90
16160;DHT22;8185;57.818;15.224;2022-12-18T09:56:53;0.60;99.90
16160;DHT22;8185;57.818;15.224;2022-12-18T09:59:25;0.60;99.90
16160;DHT22;8185;57.818;15.224;2022-12-18T10:01:53;0.60;99.90
16160;DHT22;8185;57.818;15.224;2022-12-18T10:04:20;0.60;99.90
16160;DHT22;8185;57.818;15.224;2022-12-18T10:06:54;0.60;99.90
16160;DHT22;8185;57.818;15.224;2022-12-18T10:09:28;0.60;99.90
16160;DHT22;8185;57.818;15.224;2022-12-18T10:12:06;0.60;99.90
16160;DHT22;8185;57.818;15.224;2022-12-18T10:14:42;0.60;99.90
16160;DHT22;8185;57.818;15.224;2022-12-18T10:17:20;0.60;99.90
16160;DHT22;8185;57.818;15.224;2022-12-18T10:19:52;0.60;99.90
16160;DHT22;8185;57.818;15.224;2022-12-18T10:22:43;0.60;99.90
16160;DHT22;8185;57.818;15.224;2022-12-18T10:25:21;0.70;99.90
16160;DHT22;8185;57.818;15.224;2022-12-18T10:27:53;0.70;99.90
16160;DHT22;8185;57.818;15.224;2022-12-18T10:30:23;0.80;99.90
16160;DHT22;8185;57.818;15.224;2022-12-18T10:32:51;0.80;99.90
16160;DHT22;8185;57.818;15.224;2022-12-18T10:35:20;0.80;99.90
16160;DHT22;8185;57.818;15.224;2022-12-18T10:38:05;0.80;99.90
16160;DHT22;8185;57.818;15.224;2022-12-18T10:40:33;0.80;99.90
16160;DHT22;8185;57.818;15.224;2022-12-18T10:43:20;0.80;99.90
16160;DHT22;8185;57.818;15.224;2022-12-18T10:46:11;0.80;99.90
16160;DHT22;8185;57.818;15.224;2022-12-18T10:48:49;0.90;99.90
16160;DHT22;8185;57.818;15.224;2022-12-18T10:51:24;0.80;99.90
16160;DHT22;8185;57.818;15.224;2022-12-18T10:53:55;0.90;99.90
16160;DHT22;8185;57.818;15.224;2022-12-18T10:56:24;0.90;99.90
16160;DHT22;8185;57.818;15.224;2022-12-18T10:58:59;0.90;99.90
16160;DHT22;8185;57.818;15.224;2022-12-18T11:01:27;1.00;99.90
16160;DHT22;8185;57.818;15.224;2022-12-18T11:04:08;1.00;99.90
16160;DHT22;8185;57.818;15.224;2022-12-18T11:06:56;1.00;99.90
16160;DHT22;8185;57.818;15.224;2022-12-18T11:09:24;1.10;99.90
16160;DHT22;8185;57.818;15.224;2022-12-18T11:11:54;1.10;99.90
16160;DHT22;8185;57.818;15.224;2022-12-18T11:14:25;1.10;99.90
16160;DHT22;8185;57.818;15.224;2022-12-18T11:16:55;1.10;99.90
16160;DHT22;8185;57.818;15.224;2022-12-18T11:19:32;1.10;99.90
16160;DHT22;8185;57.818;15.224;2022-12-18T11:22:01;1.10;99.90
16160;DHT22;8185;57.818;15.224;2022-12-18T11:24:30;1.10;99.90
16160;DHT22;8185;57.818;15.224;2022-12-18T11:27:00;1.20;99.90
16160;DHT22;8185;57.818;15.224;2022-12-18T11:29:37;1.20;99.90
16160;DHT22;8185;57.818;15.224;2022-12-18T11:32:29;1.20;99.90
16160;DHT22;8185;57.818;15.224;2022-12-18T11:35:10;1.30;99.90
16160;DHT22;8185;57.818;15.224;2022-12-18T11:37:40;1.30;99.90
16160;DHT22;8185;57.818;15.224;2022-12-18T11:40:14;1.30;99.90
16160;DHT22;8185;57.818;15.224;2022-12-18T11:42:46;1.30;99.90
16160;DHT22;8185;57.818;15.224;2022-12-18T11:45:24;1.30;99.90
16160;DHT22;8185;57.818;15.224;2022-12-18T11:47:57;1.30;99.90
16160;DHT22;8185;57.818;15.224;2022-12-18T11:50:31;1.30;99.90
16160;DHT22;8185;57.818;15.224;2022-12-18T11:52:59;1.40;99.90
16160;DHT22;8185;57.818;15.224;2022-12-18T11:55:37;1.40;99.90
16160;DHT22;8185;57.818;15.224;2022-12-18T11:58:14;1.50;99.90
16160;DHT22;8185;57.818;15.224;2022-12-18T12:00:49;1.50;99.90
16160;DHT22;8185;57.818;15.224;2022-12-18T12:03:27;1.50;99.90
16160;DHT22;8185;57.818;15.224;2022-12-18T12:06:12;1.50;99.90
16160;DHT22;8185;57.818;15.224;2022-12-18T12:09:04;1.50;99.90
16160;DHT22;8185;57.818;15.224;2022-12-18T12:11:42;1.50;99.90
16160;DHT22;8185;57.818;15.224;2022-12-18T12:14:24;1.50;99.90
16160;DHT22;8185;57.818;15.224;2022-12-18T12:16:58;1.50;99.90
16160;DHT22;8185;57.818;15.224;2022-12-18T12:19:34;1.50;99.90
16160;DHT22;8185;57.818;15.224;2022-12-18T12:22:07;1.50;99.90
16160;DHT22;8185;57.818;15.224;2022-12-18T12:24:49;1.50;99.90
16160;DHT22;8185;57.818;15.224;2022-12-18T12:27:29;1.50;99.90
16160;DHT22;8185;57.818;15.224;2022-12-18T12:30:05;1.50;99.90
16160;DHT22;8185;57.818;15.224;2022-12-18T12:32:46;1.50;99.90
16160;DHT22;8185;57.818;15.224;2022-12-18T12:35:27;1.60;99.90
16160;DHT22;8185;57.818;15.224;2022-12-18T12:38:05;1.60;99.90
16160;DHT22;8185;57.818;15.224;2022-12-18T12:40:35;1.60;99.90
16160;DHT22;8185;57.818;15.224;2022-12-18T12:43:15;1.70;99.90
16160;DHT22;8185;57.818;15.224;2022-12-18T12:45:48;1.70;99.90
16160;DHT22;8185;57.818;15.224;2022-12-18T12:48:30;1.70;99.90
16160;DHT22;8185;57.818;15.224;2022-12-18T12:51:01;1.70;99.90
16160;DHT22;8185;57.818;15.224;2022-12-18T12:53:34;1.70;99.90
16160;DHT22;8185;57.818;15.224;2022-12-18T12:56:04;1.70;99.90
16160;DHT22;8185;57.818;15.224;2022-12-18T12:58:38;1.70;99.90
16160;DHT22;8185;57.818;15.224;2022-12-18T13:01:15;1.80;99.90
16160;DHT22;8185;57.818;15.224;2022-12-18T13:03:52;1.80;99.90
16160;DHT22;8185;57.818;15.224;2022-12-18T13:06:32;1.80;99.90
16160;DHT22;8185;57.818;15.224;2022-12-18T13:09:00;1.80;99.90
16160;DHT22;8185;57.818;15.224;2022-12-18T13:11:35;1.80;99.90
16160;DHT22;8185;57.818;15.224;2022-12-18T13:14:29;1.80;99.90
16160;DHT22;8185;57.818;15.224;2022-12-18T13:17:15;1.70;99.90
16160;DHT22;8185;57.818;15.224;2022-12-18T13:19:44;1.70;99.90
16160;DHT22;8185;57.818;15.224;2022-12-18T13:22:22;1.70;99.90
16160;DHT22;8185;57.818;15.224;2022-12-18T13:24:49;1.70;99.90
16160;DHT22;8185;57.818;15.224;2022-12-18T13:27:54;1.70;99.90
16160;DHT22;8185;57.818;15.224;2022-12-18T13:30:49;1.70;99.90
16160;DHT22;8185;57.818;15.224;2022-12-18T13:33:49;1.60;99.90
16160;DHT22;8185;57.818;15.224;2022-12-18T13:36:29;1.60;99.90
16160;DHT22;8185;57.818;15.224;2022-12-18T13:42:31;1.50;99.90
16160;DHT22;8185;57.818;15.224;2022-12-18T13:45:35;1.50;99.90
16160;DHT22;8185;57.818;15.224;2022-12-18T13:48:04;1.50;99.90
16160;DHT22;8185;57.818;15.224;2022-12-18T13:50:33;1.50;99.90
16160;DHT22;8185;57.818;15.224;2022-12-18T13:53:03;1.60;99.90
16160;DHT22;8185;57.818;15.224;2022-12-18T13:55:32;1.60;99.90
16160;DHT22;8185;57.818;15.224;2022-12-18T13:58:04;1.60;99.90
16160;DHT22;8185;57.818;15.224;2022-12-18T14:00:32;1.70;99.90
16160;DHT22;8185;57.818;15.224;2022-12-18T14:02:59;1.70;99.90
16160;DHT22;8185;57.818;15.224;2022-12-18T14:05:29;1.70;99.90
16160;DHT22;8185;57.818;15.224;2022-12-18T14:08:03;1.80;99.90
16160;DHT22;8185;57.818;15.224;2022-12-18T14:10:31;1.80;99.90
16160;DHT22;8185;57.818;15.224;2022-12-18T14:13:04;1.80;99.90
16160;DHT22;8185;57.818;15.224;2022-12-18T14:15:34;1.80;99.90
16160;DHT22;8185;57.818;15.224;2022-12-18T14:18:12;1.80;99.90
16160;DHT22;8185;57.818;15.224;2022-12-18T14:20:51;1.80;99.90
16160;DHT22;8185;57.818;15.224;2022-12-18T14:23:28;1.90;99.90
16160;DHT22;8185;57.818;15.224;2022-12-18T14:25:56;1.90;99.90
16160;DHT22;8185;57.818;15.224;2022-12-18T14:28:24;1.80;99.90
16160;DHT22;8185;57.818;15.224;2022-12-18T14:30:52;1.80;99.90
16160;DHT22;8185;57.818;15.224;2022-12-18T14:33:22;1.80;99.90
16160;DHT22;8185;57.818;15.224;2022-12-18T14:35:56;1.80;99.90
16160;DHT22;8185;57.818;15.224;2022-12-18T14:38:30;1.80;99.90
16160;DHT22;8185;57.818;15.224;2022-12-18T14:40:59;1.80;99.90
16160;DHT22;8185;57.818;15.224;2022-12-18T14:43:27;1.80;99.90
16160;DHT22;8185;57.818;15.224;2022-12-18T14:45:55;1.80;99.90
16160;DHT22;8185;57.818;15.224;2022-12-18T14:48:37;1.80;99.90
16160;DHT22;8185;57.818;15.224;2022-12-18T14:51:14;1.80;99.90
16160;DHT22;8185;57.818;15.224;2022-12-18T14:53:45;1.80;99.90
16160;DHT22;8185;57.818;15.224;2022-12-18T14:56:16;1.80;99.90
16160;DHT22;8185;57.818;15.224;2022-12-18T14:58:48;1.70;99.90
16160;DHT22;8185;57.818;15.224;2022-12-18T15:01:24;1.70;99.90
16160;DHT22;8185;57.818;15.224;2022-12-18T15:03:53;1.70;99.90
16160;DHT22;8185;57.818;15.224;2022-12-18T15:06:29;1.80;99.90
16160;DHT22;8185;57.818;15.224;2022-12-18T15:08:58;2.30;99.90
16160;DHT22;8185;57.818;15.224;2022-12-18T15:11:30;1.80;99.90
16160;DHT22;8185;57.818;15.224;2022-12-18T15:13:59;1.70;99.90
16160;DHT22;8185;57.818;15.224;2022-12-18T15:16:27;1.80;99.90
16160;DHT22;8185;57.818;15.224;2022-12-18T15:18:54;1.80;99.90
16160;DHT22;8185;57.818;15.224;2022-12-18T15:21:22;1.70;99.90
16160;DHT22;8185;57.818;15.224;2022-12-18T15:23:50;1.70;99.90
16160;DHT22;8185;57.818;15.224;2022-12-18T15:26:20;1.80;99.90
16160;DHT22;8185;57.818;15.224;2022-12-18T15:28:49;1.70;99.90
16160;DHT22;8185;57.818;15.224;2022-12-18T15:31:24;1.70;99.90
16160;DHT22;8185;57.818;15.224;2022-12-18T15:36:45;1.70;99.90
16160;DHT22;8185;57.818;15.224;2022-12-18T15:39:12;1.80;99.90
16160;DHT22;8185;57.818;15.224;2022-12-18T15:41:41;1.80;99.90
16160;DHT22;8185;57.818;15.224;2022-12-18T15:44:29;1.80;99.90
16160;DHT22;8185;57.818;15.224;2022-12-18T15:46:55;1.80;99.90
16160;DHT22;8185;57.818;15.224;2022-12-18T15:49:22;1.80;99.90
16160;DHT22;8185;57.818;15.224;2022-12-18T15:51:52;1.80;99.90
16160;DHT22;8185;57.818;15.224;2022-12-18T15:54:20;1.80;99.90
16160;DHT22;8185;57.818;15.224;2022-12-18T15:57:10;1.80;99.90
16160;DHT22;8185;57.818;15.224;2022-12-18T15:59:49;1.80;99.90
16160;DHT22;8185;57.818;15.224;2022-12-18T16:02:17;1.80;99.90
16160;DHT22;8185;57.818;15.224;2022-12-18T16:04:45;1.80;99.90
16160;DHT22;8185;57.818;15.224;2022-12-18T16:07:12;1.80;99.90
16160;DHT22;8185;57.818;15.224;2022-12-18T16:09:39;1.90;99.90
16160;DHT22;8185;57.818;15.224;2022-12-18T16:12:15;1.80;99.90
16160;DHT22;8185;57.818;15.224;2022-12-18T16:14:44;1.90;99.90